EDDC/DRS METAR and TAF weather

Enter ICAO airport designator
Station Type Date Time Source
EDDC METAR 2023/01/30 11:20 UTC NOAA

EDDC 301120Z AUTO 27016KT 230V310 9999 BKN017 BKN026 OVC048 03/M00 Q1008 TEMPO 27020G35KT SHRA BKN014CB


Station Type Date Time Source
EDDC Decoded METAR 2023/01/30 11:20 UTC NOAA

Dresden-Klotzsche, Germany (EDDC) 51-08N 013-45E 232M
Jan 30, 2023 - 06:20 AM EST / 2023.01.30 1120 UTC
Wind: from the W (270 degrees) at 18 MPH (16 KT) (direction variable):0
Visibility: greater than 7 mile(s):0
Sky conditions: overcast
Weather: Cumulonimbus clouds observed
Temperature: 37 F (3 C)
Dew Point: 32 F (0 C)
Relative Humidity: 80%
Pressure (altimeter): 29.77 in. Hg (1008 hPa)
ob: EDDC 301120Z AUTO 27016KT 230V310 9999 BKN017 BKN026 OVC048 03/M00 Q1008 TEMPO 27020G35KT SHRA BKN014CB
cycle: 11

Station Type Date Time Source
EDDC TAF 2023/01/30 12:27 UTC NOAA

TAF EDDC 301100Z 3012/3112 28015G30KT 9999 BKN025
TEMPO 3012/3019 28020G35KT SHRA BKN020CB PROB40
TEMPO 3012/3018 4500 TSGSRA BKN012CB
TEMPO 3022/3107 SHRA SCT008 BKN012TCU
TEMPO 3100/3102 29020G30KT

Example: see airport list